Council Bluffs, Iowa
Current Conditions -  °F | °C
As of 1:52 AM on Wednesday 26 Nov 2014 (Local Time) from KOMA Reporting Station
Drizzle Drizzle  
Wind Chill: 30°   Ceiling: 1600
Heat Index: 35°   Visibility: 9mi
Dew Point: 34°   Wind: 6mph
Humidity: 96%   Direction: 170°S
Pressure: 29.83"   Gusts: NA
Location:  41.26°N, 95.85°W
Report Text: KOMA 260752Z 17005KT 9SM -DZ OVC016 02/01 A2983 RMK AO2 SLP109 SNB06E22RAE30DZB30 P0002 T00170011
Loading
Personal Weather Stations






























Interactive Weather Map New forecast layout! Learn more

10-Day Weather Forecast

Advertisements
Track Severe Weather on mobile